createdAt,value
2019-03-01T00:01:01.971Z,48.77
2019-03-01T00:03:30.746Z,57.73
2019-03-01T00:06:10.003Z,48.77
2019-03-01T00:08:46.361Z,78.07
2019-03-01T00:11:24.219Z,62.23
2019-03-01T00:14:10.856Z,75.37
2019-03-01T00:16:57.672Z,57.13
2019-03-01T00:20:03.766Z,50.97
2019-03-01T00:22:43.430Z,54.83
2019-03-01T00:25:26.175Z,63.20
2019-03-01T00:28:26.256Z,63.03
2019-03-01T00:31:28.342Z,68.33
2019-03-01T00:34:04.619Z,64.87
2019-03-01T00:37:01.522Z,73.80
2019-03-01T00:39:49.391Z,59.70
2019-03-01T00:42:37.283Z,66.83
2019-03-01T00:45:06.321Z,70.23
2019-03-01T00:47:35.151Z,75.80
2019-03-01T00:50:04.128Z,71.87
2019-03-01T00:52:33.229Z,83.00
2019-03-01T00:55:02.060Z,89.27
2019-03-01T00:57:30.883Z,90.97
2019-03-01T00:59:59.678Z,101.07
2019-03-01T01:02:28.487Z,112.37
2019-03-01T01:04:57.282Z,118.73
2019-03-01T01:07:26.038Z,118.60
2019-03-01T01:09:54.812Z,132.83
2019-03-01T01:12:23.567Z,137.53
2019-03-01T01:14:52.627Z,139.37
2019-03-01T01:17:21.371Z,142.07
2019-03-01T01:19:50.103Z,139.50
2019-03-01T01:22:18.878Z,141.07
2019-03-01T01:24:47.675Z,157.63
2019-03-01T01:27:16.586Z,143.33
2019-03-01T01:29:45.435Z,160.27
2019-03-01T01:32:14.266Z,133.33
2019-03-01T01:34:43.773Z,121.70
2019-03-01T01:37:14.211Z,116.27
2019-03-01T01:39:43.021Z,108.67
2019-03-01T01:42:12.884Z,99.27
2019-03-01T01:44:41.654Z,106.67
2019-03-01T01:47:10.653Z,107.50
2019-03-01T01:49:40.568Z,106.27
2019-03-01T01:52:09.390Z,108.23
2019-03-01T01:54:38.355Z,116.60
2019-03-01T01:57:07.120Z,125.37
2019-03-01T01:59:36.133Z,138.10
2019-03-01T02:02:04.868Z,136.97
2019-03-01T02:04:33.573Z,140.70
2019-03-01T02:07:02.524Z,135.00
2019-03-01T02:09:31.275Z,123.73
2019-03-01T02:12:00.058Z,151.33
2019-03-01T02:14:28.948Z,168.23
2019-03-01T02:16:58.565Z,126.33
2019-03-01T02:19:27.947Z,132.30
2019-03-01T02:21:57.805Z,107.63
2019-03-01T02:24:28.485Z,140.53
2019-03-01T02:27:29.913Z,118.07
2019-03-01T02:30:00.719Z,118.03
2019-03-01T02:32:37.101Z,107.80
2019-03-01T02:35:09.346Z,109.27
2019-03-01T02:37:39.588Z,94.83
2019-03-01T02:40:08.747Z,97.77
2019-03-01T02:42:37.495Z,99.07
2019-03-01T02:45:06.906Z,102.27
2019-03-01T02:47:36.007Z,110.13
2019-03-01T02:50:05.515Z,96.43
2019-03-01T02:52:34.357Z,94.43
2019-03-01T02:55:03.548Z,111.37
2019-03-01T02:57:32.395Z,123.63
2019-03-01T03:00:01.266Z,116.67
2019-03-01T03:02:30.035Z,113.37
2019-03-01T03:04:59.036Z,115.33
2019-03-01T03:07:33.271Z,108.27
2019-03-01T03:10:02.088Z,102.10
2019-03-01T03:12:30.911Z,113.33
2019-03-01T03:14:59.796Z,100.67
2019-03-01T03:17:29.702Z,90.00
2019-03-01T03:19:58.447Z,84.93
2019-03-01T03:22:27.821Z,80.00
2019-03-01T03:24:56.628Z,74.73
2019-03-01T03:27:25.503Z,69.63
2019-03-01T03:29:54.356Z,68.50
2019-03-01T03:32:23.238Z,60.80
2019-03-01T03:34:52.356Z,55.63
2019-03-01T03:37:21.809Z,55.97
2019-03-01T03:39:50.650Z,53.10
2019-03-01T03:42:20.699Z,55.87
2019-03-01T03:44:49.602Z,55.57
2019-03-01T03:47:18.569Z,51.67
2019-03-01T03:49:47.443Z,46.67
2019-03-01T03:52:16.353Z,48.07
2019-03-01T03:54:45.240Z,52.43
2019-03-01T03:57:14.218Z,50.73
2019-03-01T03:59:43.017Z,50.37
2019-03-01T04:02:11.747Z,49.53
2019-03-01T04:04:40.672Z,51.07
2019-03-01T04:07:10.646Z,42.30
2019-03-01T04:09:39.420Z,45.00
2019-03-01T04:12:08.294Z,40.70
2019-03-01T04:14:38.890Z,42.03
2019-03-01T04:17:08.396Z,48.53
2019-03-01T04:19:37.838Z,46.80
2019-03-01T04:22:07.304Z,44.33
2019-03-01T04:24:36.896Z,47.77
2019-03-01T04:27:08.052Z,46.70
2019-03-01T04:29:37.063Z,45.97
2019-03-01T04:32:06.043Z,46.33
2019-03-01T04:34:35.114Z,46.60
2019-03-01T04:37:04.977Z,43.43
2019-03-01T04:39:35.059Z,47.53
2019-03-01T04:42:04.893Z,47.53
2019-03-01T04:44:33.675Z,49.73
2019-03-01T04:47:02.608Z,48.10
2019-03-01T04:49:31.533Z,43.50
2019-03-01T04:52:00.387Z,45.67
2019-03-01T04:54:29.150Z,42.97
2019-03-01T04:56:57.910Z,47.27
2019-03-01T04:59:26.899Z,45.50
2019-03-01T05:01:55.713Z,41.23
2019-03-01T05:04:24.660Z,43.63
2019-03-01T05:06:54.862Z,38.70
2019-03-01T05:09:23.636Z,42.50
2019-03-01T05:11:52.467Z,44.87
2019-03-01T05:14:21.280Z,38.70
2019-03-01T05:16:50.044Z,43.03
2019-03-01T05:19:18.842Z,40.00
2019-03-01T05:21:48.775Z,42.53
2019-03-01T05:24:17.586Z,42.47
2019-03-01T05:26:46.521Z,41.13
2019-03-01T05:29:16.074Z,39.30
2019-03-01T05:31:44.884Z,42.27
2019-03-01T05:34:13.630Z,42.20
2019-03-01T05:36:42.455Z,43.37
2019-03-01T05:39:11.285Z,41.20
2019-03-01T05:41:40.353Z,38.93
2019-03-01T05:44:09.330Z,37.47
2019-03-01T05:46:38.086Z,41.20
2019-03-01T05:49:07.050Z,38.00
2019-03-01T05:51:36.027Z,37.97
2019-03-01T05:54:04.848Z,40.00
2019-03-01T05:56:33.699Z,45.93
2019-03-01T05:59:11.190Z,40.70
2019-03-01T06:01:42.700Z,38.13
2019-03-01T06:04:19.655Z,37.60
2019-03-01T06:07:06.422Z,43.27
2019-03-01T06:09:42.412Z,43.90
2019-03-01T06:12:19.736Z,48.37
2019-03-01T06:15:13.786Z,48.60
2019-03-01T06:18:04.760Z,50.00
2019-03-01T06:20:52.667Z,53.33
2019-03-01T06:23:29.037Z,50.60
2019-03-01T06:26:15.268Z,45.97
2019-03-01T06:29:18.483Z,35.63
2019-03-01T06:31:55.126Z,36.53
2019-03-01T06:34:43.027Z,35.43
2019-03-01T06:37:49.810Z,32.77
2019-03-01T06:44:29.505Z,31.83
2019-03-01T06:47:09.130Z,36.60
2019-03-01T06:49:56.783Z,34.33
2019-03-01T06:52:26.725Z,31.87
2019-03-01T06:54:56.610Z,40.67
2019-03-01T06:57:26.598Z,38.37
2019-03-01T06:59:55.354Z,36.40
2019-03-01T07:02:33.734Z,37.07
2019-03-01T07:05:03.676Z,35.10
2019-03-01T07:07:32.451Z,34.00
2019-03-01T07:10:01.325Z,33.83
2019-03-01T07:12:30.135Z,37.13
2019-03-01T07:14:58.999Z,33.97
2019-03-01T07:17:27.853Z,29.17
2019-03-01T07:19:57.284Z,32.93
2019-03-01T07:22:26.914Z,34.50
2019-03-01T07:24:56.576Z,31.67
2019-03-01T07:27:26.066Z,36.20
2019-03-01T07:29:55.532Z,33.07
2019-03-01T07:32:25.309Z,34.47
2019-03-01T07:34:56.087Z,36.53
2019-03-01T07:37:26.584Z,36.50
2019-03-01T07:39:56.117Z,26.07
2019-03-01T07:42:25.674Z,32.30
2019-03-01T07:44:55.434Z,38.13
2019-03-01T07:47:24.923Z,35.83
2019-03-01T07:49:55.399Z,21.63
2019-03-01T07:52:24.922Z,30.67
2019-03-01T07:54:54.698Z,38.03
2019-03-01T07:57:24.257Z,34.33
2019-03-01T08:00:14.259Z,36.23
2019-03-01T08:03:03.442Z,35.30
2019-03-01T08:05:39.317Z,33.10
2019-03-01T08:08:07.618Z,35.03
2019-03-01T08:10:37.523Z,34.77
2019-03-01T08:13:06.981Z,33.47
2019-03-01T08:15:36.406Z,41.73
2019-03-01T08:18:08.245Z,30.07
2019-03-01T08:20:36.984Z,30.90
2019-03-01T08:23:06.341Z,32.43
2019-03-01T08:25:36.870Z,30.03
2019-03-01T08:28:06.313Z,33.33
2019-03-01T08:30:38.494Z,33.43
2019-03-01T08:33:10.145Z,31.07
2019-03-01T08:35:39.550Z,35.60
2019-03-01T08:38:08.484Z,27.93
2019-03-01T08:40:37.333Z,34.73
2019-03-01T08:43:11.784Z,31.70
2019-03-01T08:45:36.888Z,37.67
2019-03-01T08:48:05.752Z,31.77
2019-03-01T08:50:34.577Z,24.77
2019-03-01T08:53:04.441Z,37.77
2019-03-01T08:55:35.631Z,31.10
2019-03-01T08:58:06.863Z,27.87
2019-03-01T09:00:34.562Z,30.60
2019-03-01T09:03:06.104Z,27.13
2019-03-01T09:05:34.992Z,26.90
2019-03-01T09:08:03.741Z,20.03
2019-03-01T09:10:52.143Z,24.90
2019-03-01T09:13:21.620Z,25.90
2019-03-01T09:15:51.073Z,32.90
2019-03-01T09:18:20.518Z,26.10
2019-03-01T09:20:51.085Z,21.33
2019-03-01T09:23:26.433Z,28.40
2019-03-01T09:25:52.348Z,24.27
2019-03-01T09:28:21.175Z,24.60
2019-03-01T09:30:49.973Z,24.80
2019-03-01T09:33:22.936Z,20.43
2019-03-01T09:36:02.197Z,21.27
2019-03-01T09:38:32.798Z,24.00
2019-03-01T09:41:04.502Z,29.93
2019-03-01T09:43:32.944Z,21.47
2019-03-01T09:46:02.061Z,22.47
2019-03-01T09:48:31.900Z,21.93
2019-03-01T09:51:00.662Z,24.73
2019-03-01T09:53:30.687Z,21.07
2019-03-01T09:56:00.278Z,19.77
2019-03-01T09:58:29.100Z,29.17
2019-03-01T10:01:00.074Z,21.07
2019-03-01T10:03:30.778Z,24.00
2019-03-01T10:05:59.596Z,24.20
2019-03-01T10:08:28.341Z,25.00
2019-03-01T10:11:00.566Z,19.97
2019-03-01T10:13:31.358Z,23.33
2019-03-01T10:16:00.851Z,25.33
2019-03-01T10:18:30.563Z,22.63
2019-03-01T10:21:00.064Z,23.83
2019-03-01T10:23:29.480Z,26.00
2019-03-01T10:25:58.978Z,21.70
2019-03-01T10:28:29.626Z,24.07
2019-03-01T10:30:59.046Z,24.20
2019-03-01T10:33:28.545Z,23.13
2019-03-01T10:35:59.488Z,21.77
2019-03-01T10:38:28.978Z,23.77
2019-03-01T10:40:58.422Z,25.13
2019-03-01T10:43:28.082Z,26.30
2019-03-01T10:45:58.754Z,25.00
2019-03-01T10:48:28.842Z,26.73
2019-03-01T10:50:59.991Z,24.00
2019-03-01T10:53:29.387Z,22.47
2019-03-01T10:56:00.053Z,22.83
2019-03-01T10:58:30.023Z,29.80
2019-03-01T11:00:59.467Z,30.53
2019-03-01T11:03:28.874Z,23.03
2019-03-01T11:05:58.362Z,28.23
2019-03-01T11:08:27.839Z,28.27
2019-03-01T11:10:59.014Z,27.83
2019-03-01T11:13:28.534Z,24.13
2019-03-01T11:15:58.095Z,21.13
2019-03-01T11:18:27.490Z,20.77
2019-03-01T11:20:57.433Z,19.77
2019-03-01T11:23:26.898Z,23.57
2019-03-01T11:25:56.442Z,15.07
2019-03-01T11:28:44.909Z,18.80
2019-03-01T11:31:14.546Z,21.37
2019-03-01T11:33:44.062Z,18.17
2019-03-01T11:36:13.776Z,14.43
2019-03-01T11:38:43.583Z,19.77
2019-03-01T11:41:13.022Z,18.83
2019-03-01T11:43:42.412Z,19.83
2019-03-01T11:46:11.865Z,15.90
2019-03-01T11:48:41.493Z,18.80
2019-03-01T11:51:11.119Z,17.63
2019-03-01T11:53:40.500Z,17.33
2019-03-01T11:56:09.900Z,16.60
2019-03-01T11:58:39.623Z,20.53
2019-03-01T12:01:16.882Z,17.37
2019-03-01T12:03:40.217Z,17.50
2019-03-01T12:06:09.636Z,18.47
2019-03-01T12:08:38.990Z,20.97
2019-03-01T12:11:08.547Z,17.07
2019-03-01T12:13:38.308Z,19.77
2019-03-01T12:16:07.872Z,19.97
2019-03-01T12:18:37.293Z,18.70
2019-03-01T12:21:07.102Z,17.30
2019-03-01T12:23:36.531Z,19.73
2019-03-01T12:26:06.011Z,19.13
2019-03-01T12:28:35.493Z,17.77
2019-03-01T12:31:05.029Z,21.73
2019-03-01T12:33:34.467Z,22.70
2019-03-01T12:36:04.004Z,20.60
2019-03-01T12:38:33.406Z,19.97
2019-03-01T12:41:02.821Z,25.27
2019-03-01T12:43:32.527Z,27.97
2019-03-01T12:46:01.926Z,28.37
2019-03-01T12:48:31.347Z,22.47
2019-03-01T12:51:01.065Z,22.27
2019-03-01T12:53:30.485Z,30.53
2019-03-01T12:55:59.940Z,23.70
2019-03-01T12:58:29.388Z,28.30
2019-03-01T13:00:58.766Z,25.40
2019-03-01T13:03:29.989Z,22.33
2019-03-01T13:06:00.630Z,23.20
2019-03-01T13:08:30.127Z,30.10
2019-03-01T13:10:59.610Z,28.00
2019-03-01T13:13:29.134Z,29.60
2019-03-01T13:15:58.543Z,32.07
2019-03-01T13:18:28.002Z,25.53
2019-03-01T13:20:57.387Z,25.07
2019-03-01T13:23:26.794Z,29.17
2019-03-01T13:25:56.438Z,29.70
2019-03-01T13:28:26.202Z,26.83
2019-03-01T13:30:55.920Z,22.23
2019-03-01T13:33:25.286Z,39.77
2019-03-01T13:35:54.834Z,22.70
2019-03-01T13:38:24.297Z,22.00
2019-03-01T13:40:54.274Z,29.83
2019-03-01T13:43:28.296Z,28.60
2019-03-01T13:45:58.024Z,31.00
2019-03-01T13:48:28.858Z,41.50
2019-03-01T13:50:58.371Z,32.40
2019-03-01T13:53:30.214Z,32.90
2019-03-01T13:56:01.153Z,32.27
2019-03-01T13:58:31.016Z,28.30
2019-03-01T14:01:00.471Z,26.33
2019-03-01T14:03:29.947Z,28.83
2019-03-01T14:05:59.555Z,31.80
2019-03-01T14:08:30.482Z,29.77
2019-03-01T14:11:01.102Z,27.43
2019-03-01T14:13:32.343Z,23.60
2019-03-01T14:16:04.646Z,31.47
2019-03-01T14:18:36.779Z,25.57
2019-03-01T14:21:06.133Z,25.77
2019-03-01T14:23:36.936Z,29.67
2019-03-01T14:26:06.493Z,22.37
2019-03-01T14:28:40.949Z,27.50
2019-03-01T14:31:09.774Z,33.23
2019-03-01T14:33:40.430Z,25.90
2019-03-01T14:36:12.609Z,24.17
2019-03-01T14:38:42.326Z,28.80
2019-03-01T14:41:12.990Z,32.33
2019-03-01T14:43:42.646Z,24.17
2019-03-01T14:46:13.464Z,28.23
2019-03-01T14:48:46.115Z,27.30
2019-03-01T14:51:15.228Z,25.80
2019-03-01T14:53:45.161Z,23.07
2019-03-01T14:56:21.605Z,22.60
2019-03-01T14:58:58.912Z,27.10
2019-03-01T15:01:36.675Z,27.50
2019-03-01T15:04:06.173Z,24.67
2019-03-01T15:06:37.309Z,24.93
2019-03-01T15:09:07.840Z,23.90
2019-03-01T15:11:41.054Z,25.47
2019-03-01T15:14:30.565Z,28.60
2019-03-01T15:17:00.290Z,32.40
2019-03-01T15:19:29.896Z,24.63
2019-03-01T15:21:59.307Z,22.40
2019-03-01T15:24:49.326Z,25.10
2019-03-01T15:27:20.352Z,21.63
2019-03-01T15:29:49.716Z,26.77
2019-03-01T15:32:19.251Z,27.10
2019-03-01T15:34:48.751Z,20.87
2019-03-01T15:37:18.128Z,26.93
2019-03-01T15:39:47.803Z,26.47
2019-03-01T15:42:20.350Z,26.63
2019-03-01T15:44:49.646Z,26.63
2019-03-01T15:47:20.079Z,28.00
2019-03-01T15:49:51.384Z,32.07
2019-03-01T15:52:22.491Z,26.93
2019-03-01T15:54:52.594Z,31.53
2019-03-01T15:57:22.229Z,29.60
2019-03-01T15:59:51.761Z,30.50
2019-03-01T16:02:21.188Z,32.67
2019-03-01T16:04:50.582Z,29.00
2019-03-01T16:07:20.047Z,35.93
2019-03-01T16:09:49.679Z,28.30
2019-03-01T16:12:19.312Z,29.33
2019-03-01T16:14:49.004Z,30.17
2019-03-01T16:17:18.432Z,27.17
2019-03-01T16:19:50.452Z,31.37
2019-03-01T16:22:19.687Z,32.33
2019-03-01T16:24:49.118Z,32.60
2019-03-01T16:27:18.680Z,25.87
2019-03-01T16:29:48.112Z,30.27
2019-03-01T16:32:17.958Z,29.30
2019-03-01T16:34:49.065Z,28.80
2019-03-01T16:37:18.783Z,30.20
2019-03-01T16:39:49.435Z,33.57
2019-03-01T16:42:18.968Z,31.27
2019-03-01T16:44:48.450Z,26.90
2019-03-01T16:47:17.996Z,36.53
2019-03-01T16:49:47.601Z,34.33
2019-03-01T16:52:17.069Z,32.27
2019-03-01T16:54:47.545Z,32.03
2019-03-01T16:57:18.683Z,30.33
2019-03-01T16:59:49.407Z,28.83
2019-03-01T17:02:20.112Z,31.57
2019-03-01T17:04:49.900Z,33.80
2019-03-01T17:07:21.441Z,34.77
2019-03-01T17:09:51.067Z,36.83
2019-03-01T17:12:22.953Z,32.60
2019-03-01T17:14:52.728Z,32.37
2019-03-01T17:17:22.398Z,31.20
2019-03-01T17:19:52.330Z,41.27
2019-03-01T17:22:23.193Z,33.37
2019-03-01T17:24:53.691Z,32.23
2019-03-01T17:27:23.120Z,34.27
2019-03-01T17:29:54.019Z,37.27
2019-03-01T17:32:23.982Z,32.33
2019-03-01T17:34:54.175Z,31.60
2019-03-01T17:37:25.858Z,30.97
2019-03-01T17:39:56.606Z,33.63
2019-03-01T17:42:26.847Z,31.93
2019-03-01T17:44:56.662Z,34.70
2019-03-01T17:47:26.685Z,33.60
2019-03-01T17:49:56.882Z,29.77
2019-03-01T17:52:30.628Z,32.00
2019-03-01T17:55:01.525Z,34.70
2019-03-01T17:57:33.108Z,38.90
2019-03-01T18:00:03.796Z,35.87
2019-03-01T18:02:33.999Z,34.43
2019-03-01T18:05:04.576Z,38.87
2019-03-01T18:07:34.925Z,35.97
2019-03-01T18:10:10.470Z,37.40
2019-03-01T18:12:40.775Z,41.77
2019-03-01T18:15:12.504Z,40.07
2019-03-01T18:17:43.747Z,39.80
2019-03-01T18:20:14.320Z,40.80
2019-03-01T18:22:44.586Z,42.43
2019-03-01T18:25:15.025Z,44.07
2019-03-01T18:27:45.536Z,48.17
2019-03-01T18:30:19.738Z,48.07
2019-03-01T18:32:49.728Z,45.87
2019-03-01T18:35:20.055Z,49.83
2019-03-01T18:37:51.389Z,42.57
2019-03-01T18:40:22.762Z,51.90
2019-03-01T18:42:53.391Z,43.47
2019-03-01T18:45:23.654Z,45.83
2019-03-01T18:47:54.099Z,48.83
2019-03-01T18:50:27.724Z,47.23
2019-03-01T18:52:58.899Z,48.20
2019-03-01T18:55:29.246Z,44.77
2019-03-01T18:57:59.672Z,45.37
2019-03-01T19:00:35.639Z,54.60
2019-03-01T19:03:05.468Z,43.47
2019-03-01T19:05:36.770Z,48.33
2019-03-01T19:08:08.256Z,45.80
2019-03-01T19:10:38.675Z,50.30
2019-03-01T19:13:09.098Z,42.87
2019-03-01T19:15:39.677Z,44.63
2019-03-01T19:18:10.088Z,47.03
2019-03-01T19:20:41.436Z,47.90
2019-03-01T19:23:14.196Z,52.67
2019-03-01T19:25:44.681Z,54.53
2019-03-01T19:28:15.412Z,59.93
2019-03-01T19:30:49.341Z,55.17
2019-03-01T19:33:19.293Z,54.27
2019-03-01T19:35:49.979Z,54.90
2019-03-01T19:38:21.782Z,51.73
2019-03-01T19:40:55.124Z,54.40
2019-03-01T19:43:25.728Z,55.43
2019-03-01T19:45:56.244Z,49.97
2019-03-01T19:48:26.516Z,56.23
2019-03-01T19:50:58.472Z,51.20
2019-03-01T19:53:30.215Z,52.30
2019-03-01T19:56:00.649Z,52.73
2019-03-01T19:58:30.990Z,50.80
2019-03-01T20:01:01.972Z,55.00
2019-03-01T20:03:32.352Z,56.87
2019-03-01T20:06:04.473Z,50.27
2019-03-01T20:08:35.378Z,59.00
2019-03-01T20:11:05.817Z,54.23
2019-03-01T20:13:56.177Z,57.00
2019-03-01T20:16:26.734Z,57.27
2019-03-01T20:18:56.940Z,62.30
2019-03-01T20:21:27.240Z,60.93
2019-03-01T20:24:17.756Z,55.93
2019-03-01T20:26:48.222Z,52.53
2019-03-01T20:29:18.596Z,54.87
2019-03-01T20:31:48.869Z,56.47
2019-03-01T20:34:19.198Z,58.33
2019-03-01T20:36:52.876Z,54.87
2019-03-01T20:39:21.623Z,60.50
2019-03-01T20:41:52.149Z,62.10
2019-03-01T20:44:22.678Z,64.23
2019-03-01T20:46:53.953Z,69.73
2019-03-01T20:49:24.426Z,65.27
2019-03-01T20:51:54.566Z,67.33
2019-03-01T20:54:25.821Z,63.17
2019-03-01T20:56:57.493Z,72.30
2019-03-01T20:59:27.699Z,76.20
2019-03-01T21:01:58.013Z,78.77
2019-03-01T21:04:28.378Z,87.03
2019-03-01T21:06:58.512Z,71.97
2019-03-01T21:09:28.695Z,67.03
2019-03-01T21:12:01.111Z,67.07
2019-03-01T21:14:31.458Z,70.60
2019-03-01T21:17:01.633Z,73.97
2019-03-01T21:19:31.520Z,69.70
2019-03-01T21:22:04.623Z,71.63
2019-03-01T21:24:33.451Z,76.13
2019-03-01T21:27:04.374Z,74.13
2019-03-01T21:29:34.192Z,68.77
2019-03-01T21:32:04.582Z,64.70
2019-03-01T21:34:34.909Z,67.20
2019-03-01T21:37:06.979Z,75.37
2019-03-01T21:39:36.649Z,74.17
2019-03-01T21:42:06.123Z,76.03
2019-03-01T21:44:35.845Z,73.40
2019-03-01T21:47:06.953Z,83.73
2019-03-01T21:49:38.020Z,88.67
2019-03-01T21:52:08.264Z,84.83
2019-03-01T21:54:37.714Z,79.20
2019-03-01T21:57:09.069Z,76.43
2019-03-01T21:59:38.567Z,73.77
2019-03-01T22:02:08.070Z,79.47
2019-03-01T22:04:38.345Z,71.03
2019-03-01T22:07:07.973Z,76.73
2019-03-01T22:09:37.367Z,67.87
2019-03-01T22:12:07.016Z,74.00
2019-03-01T22:14:38.052Z,74.17
2019-03-01T22:17:10.377Z,80.47
2019-03-01T22:19:58.856Z,81.50
2019-03-01T22:22:28.486Z,79.83
2019-03-01T22:24:58.622Z,80.53
2019-03-01T22:27:30.646Z,79.53
2019-03-01T22:30:01.318Z,84.27
2019-03-01T22:32:30.880Z,88.50
2019-03-01T22:35:03.168Z,83.40
2019-03-01T22:37:31.528Z,85.33
2019-03-01T22:40:00.910Z,86.03
2019-03-01T22:42:30.349Z,82.67
2019-03-01T22:44:59.766Z,81.47
2019-03-01T22:47:32.322Z,86.27
2019-03-01T22:50:00.365Z,79.17
2019-03-01T22:52:31.551Z,78.90
2019-03-01T22:55:02.811Z,77.03
2019-03-01T22:57:34.146Z,77.10
2019-03-01T23:00:03.590Z,80.87
2019-03-01T23:02:35.471Z,70.17
2019-03-01T23:05:25.726Z,74.90
2019-03-01T23:07:56.874Z,74.63
2019-03-01T23:10:26.530Z,77.27
2019-03-01T23:12:56.280Z,67.80
2019-03-01T23:15:25.780Z,65.73
2019-03-01T23:17:55.548Z,64.10
2019-03-01T23:20:26.670Z,66.17
2019-03-01T23:22:56.188Z,66.03
2019-03-01T23:25:25.623Z,66.30
2019-03-01T23:27:55.073Z,66.47
2019-03-01T23:30:25.826Z,71.37
2019-03-01T23:32:55.989Z,69.37
2019-03-01T23:35:25.608Z,74.23
2019-03-01T23:37:54.987Z,65.93
2019-03-01T23:40:25.608Z,71.93
2019-03-01T23:42:57.133Z,67.43
2019-03-01T23:45:26.728Z,70.57
2019-03-01T23:47:56.238Z,71.20
2019-03-01T23:50:25.778Z,74.93
2019-03-01T23:52:58.707Z,73.53
2019-03-01T23:55:28.153Z,81.10
2019-03-01T23:58:05.730Z,76.53
